sensor_id;sensor_type;location;lat;lon;timestamp;P1;durP1;ratioP1;P2;durP2;ratioP2
46721;SDS011;32455;43.430;23.136;2024-02-16T00:02:17;6.05;;;5.35;;
46721;SDS011;32455;43.430;23.136;2024-02-16T00:05:03;5.82;;;4.70;;
46721;SDS011;32455;43.430;23.136;2024-02-16T00:07:51;8.18;;;6.00;;
46721;SDS011;32455;43.430;23.136;2024-02-16T00:10:36;9.00;;;5.22;;
46721;SDS011;32455;43.430;23.136;2024-02-16T00:13:22;8.07;;;4.90;;
46721;SDS011;32455;43.430;23.136;2024-02-16T00:16:07;7.45;;;5.00;;
46721;SDS011;32455;43.430;23.136;2024-02-16T00:18:53;6.28;;;4.97;;
46721;SDS011;32455;43.430;23.136;2024-02-16T00:21:38;7.10;;;4.88;;
46721;SDS011;32455;43.430;23.136;2024-02-16T00:24:26;8.25;;;4.95;;
46721;SDS011;32455;43.430;23.136;2024-02-16T00:27:12;8.43;;;5.10;;
46721;SDS011;32455;43.430;23.136;2024-02-16T00:29:58;6.88;;;4.70;;
46721;SDS011;32455;43.430;23.136;2024-02-16T00:32:44;6.95;;;5.13;;
46721;SDS011;32455;43.430;23.136;2024-02-16T00:35:30;8.93;;;5.22;;
46721;SDS011;32455;43.430;23.136;2024-02-16T00:38:17;7.93;;;5.75;;
46721;SDS011;32455;43.430;23.136;2024-02-16T00:41:03;8.00;;;5.78;;
46721;SDS011;32455;43.430;23.136;2024-02-16T00:43:49;8.55;;;6.22;;
46721;SDS011;32455;43.430;23.136;2024-02-16T00:46:38;11.25;;;6.28;;
46721;SDS011;32455;43.430;23.136;2024-02-16T00:49:23;12.02;;;6.20;;
46721;SDS011;32455;43.430;23.136;2024-02-16T00:52:07;7.88;;;6.25;;
46721;SDS011;32455;43.430;23.136;2024-02-16T00:54:55;7.35;;;5.63;;
46721;SDS011;32455;43.430;23.136;2024-02-16T00:57:40;7.70;;;6.03;;
46721;SDS011;32455;43.430;23.136;2024-02-16T01:00:25;9.32;;;5.93;;
46721;SDS011;32455;43.430;23.136;2024-02-16T01:03:10;9.95;;;5.47;;
46721;SDS011;32455;43.430;23.136;2024-02-16T01:05:57;9.40;;;6.07;;
46721;SDS011;32455;43.430;23.136;2024-02-16T01:08:43;7.72;;;5.80;;
46721;SDS011;32455;43.430;23.136;2024-02-16T01:11:28;9.00;;;6.22;;
46721;SDS011;32455;43.430;23.136;2024-02-16T01:14:14;9.90;;;6.68;;
46721;SDS011;32455;43.430;23.136;2024-02-16T01:17:00;9.30;;;6.10;;
46721;SDS011;32455;43.430;23.136;2024-02-16T01:19:45;10.82;;;6.63;;
46721;SDS011;32455;43.430;23.136;2024-02-16T01:22:31;9.73;;;6.93;;
46721;SDS011;32455;43.430;23.136;2024-02-16T01:25:17;9.88;;;6.57;;
46721;SDS011;32455;43.430;23.136;2024-02-16T01:28:02;8.43;;;5.47;;
46721;SDS011;32455;43.430;23.136;2024-02-16T01:30:49;8.25;;;5.40;;
46721;SDS011;32455;43.430;23.136;2024-02-16T01:33:35;8.43;;;5.25;;
46721;SDS011;32455;43.430;23.136;2024-02-16T01:36:21;8.68;;;5.70;;
46721;SDS011;32455;43.430;23.136;2024-02-16T01:39:06;7.72;;;6.13;;
46721;SDS011;32455;43.430;23.136;2024-02-16T01:41:52;8.85;;;5.50;;
46721;SDS011;32455;43.430;23.136;2024-02-16T01:44:37;8.43;;;5.30;;
46721;SDS011;32455;43.430;23.136;2024-02-16T01:47:23;8.35;;;5.90;;
46721;SDS011;32455;43.430;23.136;2024-02-16T01:50:08;6.55;;;5.53;;
46721;SDS011;32455;43.430;23.136;2024-02-16T01:52:54;6.88;;;5.70;;
46721;SDS011;32455;43.430;23.136;2024-02-16T01:55:39;7.28;;;6.00;;
46721;SDS011;32455;43.430;23.136;2024-02-16T01:58:25;8.95;;;5.20;;
46721;SDS011;32455;43.430;23.136;2024-02-16T02:01:11;6.40;;;4.80;;
46721;SDS011;32455;43.430;23.136;2024-02-16T02:03:56;6.18;;;4.97;;
46721;SDS011;32455;43.430;23.136;2024-02-16T02:06:42;6.07;;;4.97;;
46721;SDS011;32455;43.430;23.136;2024-02-16T02:09:27;5.75;;;4.85;;
46721;SDS011;32455;43.430;23.136;2024-02-16T02:12:12;8.52;;;4.88;;
46721;SDS011;32455;43.430;23.136;2024-02-16T02:14:57;6.85;;;4.85;;
46721;SDS011;32455;43.430;23.136;2024-02-16T02:17:45;7.13;;;5.22;;
46721;SDS011;32455;43.430;23.136;2024-02-16T02:20:30;8.45;;;5.15;;
46721;SDS011;32455;43.430;23.136;2024-02-16T02:23:16;7.05;;;4.80;;
46721;SDS011;32455;43.430;23.136;2024-02-16T02:26:01;15.07;;;6.82;;
46721;SDS011;32455;43.430;23.136;2024-02-16T02:28:46;9.52;;;7.00;;
46721;SDS011;32455;43.430;23.136;2024-02-16T02:31:30;7.30;;;4.60;;
46721;SDS011;32455;43.430;23.136;2024-02-16T02:34:16;5.50;;;4.47;;
46721;SDS011;32455;43.430;23.136;2024-02-16T02:37:02;6.28;;;4.88;;
46721;SDS011;32455;43.430;23.136;2024-02-16T02:39:48;6.10;;;4.45;;
46721;SDS011;32455;43.430;23.136;2024-02-16T02:42:34;7.18;;;5.20;;
46721;SDS011;32455;43.430;23.136;2024-02-16T02:45:20;9.35;;;4.93;;
46721;SDS011;32455;43.430;23.136;2024-02-16T02:48:05;6.78;;;4.35;;
46721;SDS011;32455;43.430;23.136;2024-02-16T02:50:51;7.43;;;5.25;;
46721;SDS011;32455;43.430;23.136;2024-02-16T02:53:36;6.78;;;4.38;;
46721;SDS011;32455;43.430;23.136;2024-02-16T02:56:22;6.57;;;4.50;;
46721;SDS011;32455;43.430;23.136;2024-02-16T02:59:07;6.00;;;4.43;;
46721;SDS011;32455;43.430;23.136;2024-02-16T03:01:53;7.60;;;5.35;;
46721;SDS011;32455;43.430;23.136;2024-02-16T03:04:39;5.88;;;4.90;;
46721;SDS011;32455;43.430;23.136;2024-02-16T03:07:25;6.68;;;4.78;;
46721;SDS011;32455;43.430;23.136;2024-02-16T03:10:10;5.90;;;4.10;;
46721;SDS011;32455;43.430;23.136;2024-02-16T03:12:55;5.82;;;4.40;;
46721;SDS011;32455;43.430;23.136;2024-02-16T03:15:41;7.63;;;4.75;;
46721;SDS011;32455;43.430;23.136;2024-02-16T03:18:29;6.10;;;4.60;;
46721;SDS011;32455;43.430;23.136;2024-02-16T03:21:15;6.43;;;4.95;;
46721;SDS011;32455;43.430;23.136;2024-02-16T03:24:03;8.00;;;4.70;;
46721;SDS011;32455;43.430;23.136;2024-02-16T03:26:49;10.88;;;5.35;;
46721;SDS011;32455;43.430;23.136;2024-02-16T03:29:34;7.30;;;5.28;;
46721;SDS011;32455;43.430;23.136;2024-02-16T03:32:19;7.25;;;5.15;;
46721;SDS011;32455;43.430;23.136;2024-02-16T03:35:06;7.53;;;5.47;;
46721;SDS011;32455;43.430;23.136;2024-02-16T03:37:51;7.55;;;5.03;;
46721;SDS011;32455;43.430;23.136;2024-02-16T03:40:37;6.85;;;4.95;;
46721;SDS011;32455;43.430;23.136;2024-02-16T03:43:22;6.32;;;4.15;;
46721;SDS011;32455;43.430;23.136;2024-02-16T03:46:07;8.30;;;4.82;;
46721;SDS011;32455;43.430;23.136;2024-02-16T03:48:53;7.53;;;5.22;;
46721;SDS011;32455;43.430;23.136;2024-02-16T03:51:38;7.25;;;5.15;;
46721;SDS011;32455;43.430;23.136;2024-02-16T03:54:23;7.22;;;5.25;;
46721;SDS011;32455;43.430;23.136;2024-02-16T03:57:09;6.75;;;4.72;;
46721;SDS011;32455;43.430;23.136;2024-02-16T03:59:57;6.47;;;5.00;;
46721;SDS011;32455;43.430;23.136;2024-02-16T04:02:42;6.25;;;4.80;;
46721;SDS011;32455;43.430;23.136;2024-02-16T04:05:27;6.53;;;4.75;;
46721;SDS011;32455;43.430;23.136;2024-02-16T04:08:17;7.30;;;4.68;;
46721;SDS011;32455;43.430;23.136;2024-02-16T04:11:04;5.85;;;4.60;;
46721;SDS011;32455;43.430;23.136;2024-02-16T04:13:49;8.10;;;5.63;;
46721;SDS011;32455;43.430;23.136;2024-02-16T04:16:34;7.05;;;5.00;;
46721;SDS011;32455;43.430;23.136;2024-02-16T04:19:18;7.60;;;5.10;;
46721;SDS011;32455;43.430;23.136;2024-02-16T04:22:04;7.30;;;4.60;;
46721;SDS011;32455;43.430;23.136;2024-02-16T04:24:49;7.07;;;4.70;;
46721;SDS011;32455;43.430;23.136;2024-02-16T04:27:35;7.68;;;4.88;;
46721;SDS011;32455;43.430;23.136;2024-02-16T04:30:20;6.32;;;4.78;;
46721;SDS011;32455;43.430;23.136;2024-02-16T04:33:06;7.40;;;5.22;;
46721;SDS011;32455;43.430;23.136;2024-02-16T04:35:51;7.82;;;4.70;;
46721;SDS011;32455;43.430;23.136;2024-02-16T04:38:36;7.05;;;5.07;;
46721;SDS011;32455;43.430;23.136;2024-02-16T04:41:22;9.07;;;5.20;;
46721;SDS011;32455;43.430;23.136;2024-02-16T04:44:07;6.72;;;5.00;;
46721;SDS011;32455;43.430;23.136;2024-02-16T04:46:52;8.93;;;6.53;;
46721;SDS011;32455;43.430;23.136;2024-02-16T04:49:38;13.88;;;9.85;;
46721;SDS011;32455;43.430;23.136;2024-02-16T04:52:23;13.95;;;9.63;;
46721;SDS011;32455;43.430;23.136;2024-02-16T04:55:09;22.20;;;15.55;;
46721;SDS011;32455;43.430;23.136;2024-02-16T04:57:54;21.60;;;15.63;;
46721;SDS011;32455;43.430;23.136;2024-02-16T05:00:40;14.50;;;8.48;;
46721;SDS011;32455;43.430;23.136;2024-02-16T05:03:25;11.25;;;7.15;;
46721;SDS011;32455;43.430;23.136;2024-02-16T05:06:11;7.13;;;5.70;;
46721;SDS011;32455;43.430;23.136;2024-02-16T05:08:59;11.93;;;5.70;;
46721;SDS011;32455;43.430;23.136;2024-02-16T05:11:45;6.78;;;5.00;;
46721;SDS011;32455;43.430;23.136;2024-02-16T05:14:30;7.38;;;5.43;;
46721;SDS011;32455;43.430;23.136;2024-02-16T05:17:16;6.55;;;4.45;;
46721;SDS011;32455;43.430;23.136;2024-02-16T05:20:02;10.80;;;6.47;;
46721;SDS011;32455;43.430;23.136;2024-02-16T05:22:48;9.63;;;6.97;;
46721;SDS011;32455;43.430;23.136;2024-02-16T05:25:34;11.25;;;5.25;;
46721;SDS011;32455;43.430;23.136;2024-02-16T05:28:19;9.10;;;5.30;;
46721;SDS011;32455;43.430;23.136;2024-02-16T05:31:14;8.57;;;5.90;;
46721;SDS011;32455;43.430;23.136;2024-02-16T05:34:01;10.00;;;6.18;;
46721;SDS011;32455;43.430;23.136;2024-02-16T05:36:47;26.38;;;18.35;;
46721;SDS011;32455;43.430;23.136;2024-02-16T05:39:33;12.50;;;9.68;;
46721;SDS011;32455;43.430;23.136;2024-02-16T05:42:28;9.05;;;6.72;;
46721;SDS011;32455;43.430;23.136;2024-02-16T05:45:14;8.40;;;6.05;;
46721;SDS011;32455;43.430;23.136;2024-02-16T05:48:02;7.18;;;5.40;;
46721;SDS011;32455;43.430;23.136;2024-02-16T05:50:48;6.07;;;4.97;;
46721;SDS011;32455;43.430;23.136;2024-02-16T05:53:33;6.35;;;4.25;;
46721;SDS011;32455;43.430;23.136;2024-02-16T05:56:18;9.95;;;4.72;;
46721;SDS011;32455;43.430;23.136;2024-02-16T05:59:04;6.88;;;5.25;;
46721;SDS011;32455;43.430;23.136;2024-02-16T06:01:50;8.07;;;4.90;;
46721;SDS011;32455;43.430;23.136;2024-02-16T06:04:36;5.95;;;5.03;;
46721;SDS011;32455;43.430;23.136;2024-02-16T06:07:21;12.23;;;5.38;;
46721;SDS011;32455;43.430;23.136;2024-02-16T06:10:06;8.20;;;5.47;;
46721;SDS011;32455;43.430;23.136;2024-02-16T06:12:54;28.40;;;21.75;;
46721;SDS011;32455;43.430;23.136;2024-02-16T06:15:40;22.77;;;18.60;;
46721;SDS011;32455;43.430;23.136;2024-02-16T06:18:25;55.70;;;34.50;;
46721;SDS011;32455;43.430;23.136;2024-02-16T06:21:14;30.38;;;19.10;;
46721;SDS011;32455;43.430;23.136;2024-02-16T06:24:00;19.25;;;13.23;;
46721;SDS011;32455;43.430;23.136;2024-02-16T06:26:46;10.82;;;6.57;;
46721;SDS011;32455;43.430;23.136;2024-02-16T06:29:31;11.00;;;7.18;;
46721;SDS011;32455;43.430;23.136;2024-02-16T06:32:16;14.35;;;7.32;;
46721;SDS011;32455;43.430;23.136;2024-02-16T06:35:02;14.73;;;9.20;;
46721;SDS011;32455;43.430;23.136;2024-02-16T06:37:47;15.65;;;12.38;;
46721;SDS011;32455;43.430;23.136;2024-02-16T06:40:32;15.25;;;11.30;;
46721;SDS011;32455;43.430;23.136;2024-02-16T06:43:17;14.95;;;7.63;;
46721;SDS011;32455;43.430;23.136;2024-02-16T06:46:02;15.70;;;6.22;;
46721;SDS011;32455;43.430;23.136;2024-02-16T06:48:48;6.93;;;5.25;;
46721;SDS011;32455;43.430;23.136;2024-02-16T06:51:33;6.22;;;5.05;;
46721;SDS011;32455;43.430;23.136;2024-02-16T06:54:19;8.98;;;5.20;;
46721;SDS011;32455;43.430;23.136;2024-02-16T06:57:04;7.43;;;4.63;;
46721;SDS011;32455;43.430;23.136;2024-02-16T06:59:50;7.07;;;5.20;;
46721;SDS011;32455;43.430;23.136;2024-02-16T07:02:38;7.38;;;4.93;;
46721;SDS011;32455;43.430;23.136;2024-02-16T07:05:23;8.77;;;5.20;;
46721;SDS011;32455;43.430;23.136;2024-02-16T07:08:08;7.03;;;5.25;;
46721;SDS011;32455;43.430;23.136;2024-02-16T07:10:53;8.85;;;5.82;;
46721;SDS011;32455;43.430;23.136;2024-02-16T07:13:40;10.23;;;6.75;;
46721;SDS011;32455;43.430;23.136;2024-02-16T07:16:27;12.48;;;6.60;;
46721;SDS011;32455;43.430;23.136;2024-02-16T07:19:13;11.45;;;7.18;;
46721;SDS011;32455;43.430;23.136;2024-02-16T07:21:58;13.25;;;7.05;;
46721;SDS011;32455;43.430;23.136;2024-02-16T07:24:43;7.80;;;6.28;;
46721;SDS011;32455;43.430;23.136;2024-02-16T07:27:29;8.32;;;6.18;;
46721;SDS011;32455;43.430;23.136;2024-02-16T07:30:14;7.65;;;6.18;;
46721;SDS011;32455;43.430;23.136;2024-02-16T07:32:59;7.88;;;5.50;;
46721;SDS011;32455;43.430;23.136;2024-02-16T07:35:45;9.82;;;5.55;;
46721;SDS011;32455;43.430;23.136;2024-02-16T07:38:30;8.43;;;5.93;;
46721;SDS011;32455;43.430;23.136;2024-02-16T07:41:15;7.95;;;6.20;;
46721;SDS011;32455;43.430;23.136;2024-02-16T07:44:01;8.60;;;5.78;;
46721;SDS011;32455;43.430;23.136;2024-02-16T07:46:46;8.43;;;6.15;;
46721;SDS011;32455;43.430;23.136;2024-02-16T07:49:37;6.53;;;5.72;;
46721;SDS011;32455;43.430;23.136;2024-02-16T07:52:23;8.77;;;6.40;;
46721;SDS011;32455;43.430;23.136;2024-02-16T07:55:07;9.05;;;5.82;;
46721;SDS011;32455;43.430;23.136;2024-02-16T07:57:52;9.43;;;6.25;;
46721;SDS011;32455;43.430;23.136;2024-02-16T08:00:38;8.65;;;5.95;;
46721;SDS011;32455;43.430;23.136;2024-02-16T08:03:24;7.60;;;5.47;;
46721;SDS011;32455;43.430;23.136;2024-02-16T08:06:09;7.95;;;5.70;;
46721;SDS011;32455;43.430;23.136;2024-02-16T08:08:55;6.53;;;5.68;;
46721;SDS011;32455;43.430;23.136;2024-02-16T08:11:40;11.63;;;6.25;;
46721;SDS011;32455;43.430;23.136;2024-02-16T08:14:25;6.38;;;5.63;;
46721;SDS011;32455;43.430;23.136;2024-02-16T08:17:11;8.38;;;5.57;;
46721;SDS011;32455;43.430;23.136;2024-02-16T08:19:56;6.97;;;5.53;;
46721;SDS011;32455;43.430;23.136;2024-02-16T08:22:42;7.85;;;6.05;;
46721;SDS011;32455;43.430;23.136;2024-02-16T08:25:27;7.50;;;6.03;;
46721;SDS011;32455;43.430;23.136;2024-02-16T08:28:12;6.00;;;5.20;;
46721;SDS011;32455;43.430;23.136;2024-02-16T08:30:58;7.68;;;5.25;;
46721;SDS011;32455;43.430;23.136;2024-02-16T08:33:44;6.75;;;5.68;;
46721;SDS011;32455;43.430;23.136;2024-02-16T08:36:30;7.20;;;5.55;;
46721;SDS011;32455;43.430;23.136;2024-02-16T08:39:16;7.55;;;5.93;;
46721;SDS011;32455;43.430;23.136;2024-02-16T08:42:03;8.05;;;5.45;;
46721;SDS011;32455;43.430;23.136;2024-02-16T08:44:49;11.82;;;5.68;;
46721;SDS011;32455;43.430;23.136;2024-02-16T08:47:34;8.48;;;5.38;;
46721;SDS011;32455;43.430;23.136;2024-02-16T08:50:19;12.43;;;5.70;;
46721;SDS011;32455;43.430;23.136;2024-02-16T08:53:05;8.60;;;5.82;;
46721;SDS011;32455;43.430;23.136;2024-02-16T08:55:50;11.93;;;6.22;;
46721;SDS011;32455;43.430;23.136;2024-02-16T08:58:35;9.25;;;6.10;;
46721;SDS011;32455;43.430;23.136;2024-02-16T09:01:31;12.52;;;6.90;;
46721;SDS011;32455;43.430;23.136;2024-02-16T09:04:20;13.15;;;6.88;;
46721;SDS011;32455;43.430;23.136;2024-02-16T09:07:05;10.73;;;6.95;;
46721;SDS011;32455;43.430;23.136;2024-02-16T09:09:51;10.00;;;6.80;;
46721;SDS011;32455;43.430;23.136;2024-02-16T09:12:39;8.43;;;5.85;;
46721;SDS011;32455;43.430;23.136;2024-02-16T09:15:25;8.95;;;6.70;;
46721;SDS011;32455;43.430;23.136;2024-02-16T09:18:10;9.43;;;6.97;;
46721;SDS011;32455;43.430;23.136;2024-02-16T09:20:55;9.65;;;6.25;;
46721;SDS011;32455;43.430;23.136;2024-02-16T09:23:41;9.90;;;6.82;;
46721;SDS011;32455;43.430;23.136;2024-02-16T09:26:27;6.45;;;5.60;;
46721;SDS011;32455;43.430;23.136;2024-02-16T09:29:15;9.10;;;6.47;;
46721;SDS011;32455;43.430;23.136;2024-02-16T09:32:00;9.85;;;6.88;;
46721;SDS011;32455;43.430;23.136;2024-02-16T09:34:45;6.95;;;5.38;;
46721;SDS011;32455;43.430;23.136;2024-02-16T09:37:31;8.25;;;5.88;;
46721;SDS011;32455;43.430;23.136;2024-02-16T09:40:16;9.07;;;6.13;;
46721;SDS011;32455;43.430;23.136;2024-02-16T09:43:03;7.88;;;5.75;;
46721;SDS011;32455;43.430;23.136;2024-02-16T09:45:51;9.55;;;5.70;;
46721;SDS011;32455;43.430;23.136;2024-02-16T09:48:37;7.82;;;5.55;;
46721;SDS011;32455;43.430;23.136;2024-02-16T09:51:25;5.97;;;4.97;;
46721;SDS011;32455;43.430;23.136;2024-02-16T09:54:10;7.50;;;5.25;;
46721;SDS011;32455;43.430;23.136;2024-02-16T09:56:56;7.18;;;5.45;;
46721;SDS011;32455;43.430;23.136;2024-02-16T09:59:41;6.78;;;4.70;;
46721;SDS011;32455;43.430;23.136;2024-02-16T10:02:27;6.32;;;4.43;;
46721;SDS011;32455;43.430;23.136;2024-02-16T10:05:13;6.07;;;4.50;;
46721;SDS011;32455;43.430;23.136;2024-02-16T10:08:10;6.28;;;4.88;;
46721;SDS011;32455;43.430;23.136;2024-02-16T10:11:03;4.45;;;3.92;;
46721;SDS011;32455;43.430;23.136;2024-02-16T10:13:58;8.10;;;4.30;;
46721;SDS011;32455;43.430;23.136;2024-02-16T10:16:58;5.95;;;4.22;;
46721;SDS011;32455;43.430;23.136;2024-02-16T10:19:44;5.65;;;4.28;;
46721;SDS011;32455;43.430;23.136;2024-02-16T10:22:40;5.50;;;4.60;;
46721;SDS011;32455;43.430;23.136;2024-02-16T10:25:24;5.43;;;4.07;;
46721;SDS011;32455;43.430;23.136;2024-02-16T10:28:10;5.22;;;4.05;;
46721;SDS011;32455;43.430;23.136;2024-02-16T10:31:01;3.30;;;3.00;;
46721;SDS011;32455;43.430;23.136;2024-02-16T10:33:46;1.98;;;1.80;;
46721;SDS011;32455;43.430;23.136;2024-02-16T10:36:33;2.15;;;1.75;;
46721;SDS011;32455;43.430;23.136;2024-02-16T10:39:19;2.50;;;1.67;;
46721;SDS011;32455;43.430;23.136;2024-02-16T10:42:05;2.95;;;2.65;;
46721;SDS011;32455;43.430;23.136;2024-02-16T10:44:54;3.72;;;2.80;;
46721;SDS011;32455;43.430;23.136;2024-02-16T10:47:39;4.28;;;3.08;;
46721;SDS011;32455;43.430;23.136;2024-02-16T10:50:24;3.00;;;2.70;;
46721;SDS011;32455;43.430;23.136;2024-02-16T10:53:12;5.38;;;4.35;;
46721;SDS011;32455;43.430;23.136;2024-02-16T10:56:08;4.40;;;3.72;;
46721;SDS011;32455;43.430;23.136;2024-02-16T10:58:53;5.95;;;3.85;;
46721;SDS011;32455;43.430;23.136;2024-02-16T11:01:42;4.20;;;3.60;;
46721;SDS011;32455;43.430;23.136;2024-02-16T11:04:39;4.85;;;3.92;;
46721;SDS011;32455;43.430;23.136;2024-02-16T11:07:25;4.03;;;3.60;;
46721;SDS011;32455;43.430;23.136;2024-02-16T11:10:11;4.93;;;4.43;;
46721;SDS011;32455;43.430;23.136;2024-02-16T11:13:03;6.82;;;4.32;;
46721;SDS011;32455;43.430;23.136;2024-02-16T11:15:55;4.10;;;3.60;;
46721;SDS011;32455;43.430;23.136;2024-02-16T11:18:47;5.50;;;3.83;;
46721;SDS011;32455;43.430;23.136;2024-02-16T11:21:33;7.63;;;4.05;;
46721;SDS011;32455;43.430;23.136;2024-02-16T11:24:19;4.18;;;3.72;;
46721;SDS011;32455;43.430;23.136;2024-02-16T11:27:08;4.32;;;3.65;;
46721;SDS011;32455;43.430;23.136;2024-02-16T11:29:55;3.72;;;3.22;;
46721;SDS011;32455;43.430;23.136;2024-02-16T11:32:44;3.45;;;3.05;;
46721;SDS011;32455;43.430;23.136;2024-02-16T11:35:31;3.53;;;3.20;;
46721;SDS011;32455;43.430;23.136;2024-02-16T11:38:16;5.45;;;3.10;;
46721;SDS011;32455;43.430;23.136;2024-02-16T11:41:04;3.85;;;3.45;;
46721;SDS011;32455;43.430;23.136;2024-02-16T11:43:58;3.97;;;3.33;;
46721;SDS011;32455;43.430;23.136;2024-02-16T11:46:46;4.18;;;3.08;;
46721;SDS011;32455;43.430;23.136;2024-02-16T11:49:31;3.25;;;2.92;;
46721;SDS011;32455;43.430;23.136;2024-02-16T11:52:17;3.30;;;2.58;;
46721;SDS011;32455;43.430;23.136;2024-02-16T11:55:02;3.83;;;2.90;;
46721;SDS011;32455;43.430;23.136;2024-02-16T11:57:48;2.60;;;2.30;;
46721;SDS011;32455;43.430;23.136;2024-02-16T12:00:35;5.05;;;2.90;;
46721;SDS011;32455;43.430;23.136;2024-02-16T12:03:21;4.05;;;2.83;;
46721;SDS011;32455;43.430;23.136;2024-02-16T12:06:09;4.25;;;3.20;;
46721;SDS011;32455;43.430;23.136;2024-02-16T12:09:07;3.85;;;3.50;;
46721;SDS011;32455;43.430;23.136;2024-02-16T12:11:54;3.10;;;2.85;;
46721;SDS011;32455;43.430;23.136;2024-02-16T12:14:40;3.67;;;3.22;;
46721;SDS011;32455;43.430;23.136;2024-02-16T12:17:25;4.45;;;3.35;;
46721;SDS011;32455;43.430;23.136;2024-02-16T12:20:11;4.47;;;2.83;;
46721;SDS011;32455;43.430;23.136;2024-02-16T12:23:10;4.22;;;3.40;;
46721;SDS011;32455;43.430;23.136;2024-02-16T12:25:56;4.05;;;3.22;;
46721;SDS011;32455;43.430;23.136;2024-02-16T12:28:42;4.35;;;2.85;;
46721;SDS011;32455;43.430;23.136;2024-02-16T12:31:27;3.10;;;2.80;;
46721;SDS011;32455;43.430;23.136;2024-02-16T12:34:14;3.65;;;2.75;;
46721;SDS011;32455;43.430;23.136;2024-02-16T12:37:00;3.75;;;3.28;;
46721;SDS011;32455;43.430;23.136;2024-02-16T12:39:45;3.65;;;2.85;;
46721;SDS011;32455;43.430;23.136;2024-02-16T12:42:32;3.72;;;3.30;;
46721;SDS011;32455;43.430;23.136;2024-02-16T12:45:17;3.67;;;3.22;;
46721;SDS011;32455;43.430;23.136;2024-02-16T12:48:02;4.10;;;2.70;;
46721;SDS011;32455;43.430;23.136;2024-02-16T12:50:48;3.08;;;2.55;;
46721;SDS011;32455;43.430;23.136;2024-02-16T12:53:34;4.22;;;3.20;;
46721;SDS011;32455;43.430;23.136;2024-02-16T12:56:25;2.60;;;2.40;;
46721;SDS011;32455;43.430;23.136;2024-02-16T12:59:11;5.20;;;3.40;;
46721;SDS011;32455;43.430;23.136;2024-02-16T13:01:57;3.13;;;2.88;;
46721;SDS011;32455;43.430;23.136;2024-02-16T13:04:42;4.38;;;3.00;;
46721;SDS011;32455;43.430;23.136;2024-02-16T13:07:26;3.58;;;2.85;;
46721;SDS011;32455;43.430;23.136;2024-02-16T13:10:11;3.53;;;2.90;;
46721;SDS011;32455;43.430;23.136;2024-02-16T13:12:57;6.18;;;3.13;;
46721;SDS011;32455;43.430;23.136;2024-02-16T13:15:43;3.00;;;2.65;;
46721;SDS011;32455;43.430;23.136;2024-02-16T13:18:29;3.13;;;2.83;;
46721;SDS011;32455;43.430;23.136;2024-02-16T13:21:14;3.60;;;3.30;;
46721;SDS011;32455;43.430;23.136;2024-02-16T13:24:00;3.60;;;3.03;;
46721;SDS011;32455;43.430;23.136;2024-02-16T13:26:46;3.78;;;3.28;;
46721;SDS011;32455;43.430;23.136;2024-02-16T13:29:31;3.50;;;3.00;;
46721;SDS011;32455;43.430;23.136;2024-02-16T13:32:17;3.70;;;2.72;;
46721;SDS011;32455;43.430;23.136;2024-02-16T13:35:02;3.60;;;3.30;;
46721;SDS011;32455;43.430;23.136;2024-02-16T13:37:48;3.95;;;3.55;;
46721;SDS011;32455;43.430;23.136;2024-02-16T13:40:33;3.47;;;2.88;;
46721;SDS011;32455;43.430;23.136;2024-02-16T13:43:18;3.58;;;2.92;;
46721;SDS011;32455;43.430;23.136;2024-02-16T13:46:03;2.97;;;2.67;;
46721;SDS011;32455;43.430;23.136;2024-02-16T13:48:49;3.35;;;3.03;;
46721;SDS011;32455;43.430;23.136;2024-02-16T13:51:35;3.10;;;2.83;;
46721;SDS011;32455;43.430;23.136;2024-02-16T13:54:20;5.22;;;3.13;;
46721;SDS011;32455;43.430;23.136;2024-02-16T13:57:07;3.33;;;2.97;;
46721;SDS011;32455;43.430;23.136;2024-02-16T13:59:52;4.22;;;2.88;;
46721;SDS011;32455;43.430;23.136;2024-02-16T14:02:37;4.53;;;3.33;;
46721;SDS011;32455;43.430;23.136;2024-02-16T14:05:23;3.47;;;3.15;;
46721;SDS011;32455;43.430;23.136;2024-02-16T14:08:10;5.63;;;3.25;;
46721;SDS011;32455;43.430;23.136;2024-02-16T14:10:57;4.40;;;3.45;;
46721;SDS011;32455;43.430;23.136;2024-02-16T14:13:42;5.22;;;4.63;;
46721;SDS011;32455;43.430;23.136;2024-02-16T14:16:28;4.18;;;3.28;;
46721;SDS011;32455;43.430;23.136;2024-02-16T14:19:14;3.83;;;3.42;;
46721;SDS011;32455;43.430;23.136;2024-02-16T14:22:00;3.25;;;2.95;;
46721;SDS011;32455;43.430;23.136;2024-02-16T14:24:45;4.25;;;2.75;;
46721;SDS011;32455;43.430;23.136;2024-02-16T14:27:31;5.15;;;2.75;;
46721;SDS011;32455;43.430;23.136;2024-02-16T14:30:16;6.03;;;3.30;;
46721;SDS011;32455;43.430;23.136;2024-02-16T14:33:02;4.85;;;3.38;;
46721;SDS011;32455;43.430;23.136;2024-02-16T14:35:49;3.30;;;3.00;;
46721;SDS011;32455;43.430;23.136;2024-02-16T14:38:35;3.50;;;3.08;;
46721;SDS011;32455;43.430;23.136;2024-02-16T14:41:20;5.50;;;3.15;;
46721;SDS011;32455;43.430;23.136;2024-02-16T14:44:07;5.10;;;3.10;;
46721;SDS011;32455;43.430;23.136;2024-02-16T14:46:51;4.68;;;3.00;;
46721;SDS011;32455;43.430;23.136;2024-02-16T14:49:36;3.15;;;2.85;;
46721;SDS011;32455;43.430;23.136;2024-02-16T14:52:22;3.78;;;3.40;;
46721;SDS011;32455;43.430;23.136;2024-02-16T14:55:08;3.75;;;2.95;;
46721;SDS011;32455;43.430;23.136;2024-02-16T14:57:54;3.83;;;3.17;;
46721;SDS011;32455;43.430;23.136;2024-02-16T15:00:39;5.93;;;3.92;;
46721;SDS011;32455;43.430;23.136;2024-02-16T15:03:26;4.25;;;3.83;;
46721;SDS011;32455;43.430;23.136;2024-02-16T15:06:15;4.35;;;3.45;;
46721;SDS011;32455;43.430;23.136;2024-02-16T15:09:00;4.70;;;3.30;;
46721;SDS011;32455;43.430;23.136;2024-02-16T15:11:45;4.47;;;3.30;;
46721;SDS011;32455;43.430;23.136;2024-02-16T15:14:30;6.20;;;4.70;;
46721;SDS011;32455;43.430;23.136;2024-02-16T15:17:16;4.88;;;3.65;;
46721;SDS011;32455;43.430;23.136;2024-02-16T15:20:02;4.10;;;3.70;;
46721;SDS011;32455;43.430;23.136;2024-02-16T15:22:48;4.28;;;3.13;;
46721;SDS011;32455;43.430;23.136;2024-02-16T15:25:33;6.05;;;4.40;;
46721;SDS011;32455;43.430;23.136;2024-02-16T15:28:18;6.35;;;4.43;;
46721;SDS011;32455;43.430;23.136;2024-02-16T15:31:04;7.05;;;4.32;;
46721;SDS011;32455;43.430;23.136;2024-02-16T15:33:49;6.65;;;5.55;;
46721;SDS011;32455;43.430;23.136;2024-02-16T15:36:35;8.05;;;5.38;;
46721;SDS011;32455;43.430;23.136;2024-02-16T15:39:21;6.63;;;5.38;;
46721;SDS011;32455;43.430;23.136;2024-02-16T15:42:07;7.07;;;4.68;;
46721;SDS011;32455;43.430;23.136;2024-02-16T15:44:53;9.65;;;4.70;;
46721;SDS011;32455;43.430;23.136;2024-02-16T15:47:38;4.75;;;3.95;;
46721;SDS011;32455;43.430;23.136;2024-02-16T15:50:24;6.57;;;3.83;;
46721;SDS011;32455;43.430;23.136;2024-02-16T15:53:14;5.35;;;4.18;;
46721;SDS011;32455;43.430;23.136;2024-02-16T15:56:00;11.10;;;4.00;;
46721;SDS011;32455;43.430;23.136;2024-02-16T15:58:47;9.32;;;5.25;;
46721;SDS011;32455;43.430;23.136;2024-02-16T16:01:33;7.68;;;4.88;;
46721;SDS011;32455;43.430;23.136;2024-02-16T16:04:20;5.63;;;4.47;;
46721;SDS011;32455;43.430;23.136;2024-02-16T16:07:06;5.32;;;3.80;;
46721;SDS011;32455;43.430;23.136;2024-02-16T16:09:54;5.22;;;3.95;;
46721;SDS011;32455;43.430;23.136;2024-02-16T16:12:40;5.95;;;4.68;;
46721;SDS011;32455;43.430;23.136;2024-02-16T16:15:25;6.63;;;4.75;;
46721;SDS011;32455;43.430;23.136;2024-02-16T16:18:10;7.28;;;6.07;;
46721;SDS011;32455;43.430;23.136;2024-02-16T16:20:56;6.07;;;5.10;;
46721;SDS011;32455;43.430;23.136;2024-02-16T16:23:42;13.73;;;12.05;;
46721;SDS011;32455;43.430;23.136;2024-02-16T16:26:27;15.93;;;9.88;;